Time;durP1;ratioP1;P1;durP2;ratioP2;P2;SDS_P1;SDS_P2;PMS_P1;PMS_P2;Temp;Humidity;BMP_temperature;BMP_pressure;BME280_temperature;BME280_humidity;BME280_pressure;Samples;Min_cycle;Max_cycle;Signal;HPM_P1;HPM_P2
2022/10/31 00:00:58;;;;;;;26.58;17.63;;;;;;;11.55;100.00;100842.00;5044527;28;20485;-73
2022/10/31 00:03:26;;;;;;;31.70;18.50;;;;;;;11.57;100.00;100851.59;5053999;28;20045;-73
2022/10/31 00:05:53;;;;;;;30.75;17.23;;;;;;;11.73;100.00;100861.53;5045779;28;20147;-73
2022/10/31 00:08:19;;;;;;;30.55;18.40;;;;;;;11.77;100.00;100858.72;5050112;28;20045;-73
2022/10/31 00:10:46;;;;;;;29.08;17.65;;;;;;;11.80;100.00;100861.25;5035682;28;20116;-72
2022/10/31 00:13:14;;;;;;;25.20;17.30;;;;;;;11.64;100.00;100840.75;5051782;28;20405;-71
2022/10/31 00:15:41;;;;;;;28.02;18.35;;;;;;;11.69;100.00;100857.28;5056334;28;20508;-71
2022/10/31 00:18:08;;;;;;;27.50;16.17;;;;;;;11.67;100.00;100867.09;5040852;28;20045;-74
2022/10/31 00:20:35;;;;;;;27.90;17.48;;;;;;;11.61;100.00;100870.91;5043569;28;20467;-71
2022/10/31 00:23:03;;;;;;;31.35;17.13;;;;;;;11.37;100.00;100833.03;5051169;28;20488;-73
2022/10/31 00:25:37;;;;;;;32.67;18.92;;;;;;;11.56;100.00;100876.41;5045000;28;20489;-71
2022/10/31 00:28:05;;;;;;;28.38;17.90;;;;;;;11.48;100.00;100864.41;5049245;28;20045;-71
2022/10/31 00:30:33;;;;;;;27.80;18.48;;;;;;;11.46;100.00;100863.63;5043539;28;20055;-71
2022/10/31 00:33:00;;;;;;;27.73;18.00;;;;;;;11.39;100.00;100860.34;5048296;28;20041;-72
2022/10/31 00:35:27;;;;;;;25.50;17.17;;;;;;;11.50;100.00;100875.78;5040984;28;20041;-72
2022/10/31 00:37:54;;;;;;;28.05;17.90;;;;;;;11.46;100.00;100877.75;5042565;28;20064;-72
2022/10/31 00:40:20;;;;;;;22.20;15.45;;;;;;;11.47;100.00;100879.47;5041346;28;20041;-71
2022/10/31 00:42:47;;;;;;;27.10;16.52;;;;;;;11.51;100.00;100885.47;5050219;28;20496;-72
2022/10/31 00:45:13;;;;;;;30.30;16.60;;;;;;;11.43;100.00;100883.16;5051950;28;20184;-72
2022/10/31 00:47:40;;;;;;;26.55;16.50;;;;;;;11.37;100.00;100877.25;5053763;28;20049;-71
2022/10/31 00:50:07;;;;;;;28.92;17.60;;;;;;;11.38;100.00;100885.16;5040293;28;20561;-72
2022/10/31 00:52:34;;;;;;;27.33;16.75;;;;;;;11.34;100.00;100880.88;5058712;28;20051;-72
2022/10/31 00:55:00;;;;;;;24.65;16.33;;;;;;;11.31;100.00;100889.00;5052070;28;20150;-72
2022/10/31 00:57:27;;;;;;;23.38;14.98;;;;;;;11.39;100.00;100886.00;5045275;28;20562;-72
2022/10/31 00:59:53;;;;;;;23.80;15.70;;;;;;;11.30;100.00;100879.31;5046154;28;20071;-72
2022/10/31 01:02:20;;;;;;;24.27;15.65;;;;;;;11.26;100.00;100888.31;5052858;28;20045;-72
2022/10/31 01:04:47;;;;;;;22.83;15.45;;;;;;;11.19;100.00;100889.50;5055137;28;20055;-72
2022/10/31 01:07:13;;;;;;;23.65;14.57;;;;;;;11.05;100.00;100870.66;5052060;28;20041;-73
2022/10/31 01:09:40;;;;;;;24.30;15.05;;;;;;;11.15;100.00;100895.88;5035667;28;20055;-72
2022/10/31 01:12:07;;;;;;;20.83;14.50;;;;;;;11.16;100.00;100887.00;5049844;28;20051;-71
2022/10/31 01:14:33;;;;;;;25.30;14.38;;;;;;;11.18;100.00;100890.41;5052088;28;20462;-72
2022/10/31 01:17:00;;;;;;;19.17;13.60;;;;;;;11.10;100.00;100884.59;5051663;28;20057;-72
2022/10/31 01:19:27;;;;;;;22.67;14.07;;;;;;;11.07;100.00;100895.31;5037533;28;20571;-71
2022/10/31 01:21:55;;;;;;;19.48;13.70;;;;;;;10.98;100.00;100891.25;5047748;28;20053;-71
2022/10/31 01:24:21;;;;;;;21.05;13.70;;;;;;;10.92;100.00;100886.19;5049590;28;20549;-72
2022/10/31 01:26:48;;;;;;;21.08;14.43;;;;;;;10.94;100.00;100894.09;5045993;28;20587;-71
2022/10/31 01:29:14;;;;;;;23.75;14.10;;;;;;;10.93;100.00;100892.34;5039892;28;21012;-71
2022/10/31 01:31:41;;;;;;;23.98;14.00;;;;;;;10.99;100.00;100884.16;5042014;28;20136;-71
2022/10/31 01:34:13;;;;;;;19.67;12.82;;;;;;;11.03;100.00;100881.31;5054817;28;20075;-72
2022/10/31 01:36:40;;;;;;;21.67;13.50;;;;;;;11.02;100.00;100878.75;5052090;28;20412;-71
2022/10/31 01:39:10;;;;;;;21.75;14.02;;;;;;;10.95;100.00;100858.72;5042689;28;20063;-71
2022/10/31 01:41:40;;;;;;;23.30;13.02;;;;;;;11.10;100.00;100884.59;5045417;28;20148;-72
2022/10/31 01:44:15;;;;;;;22.88;13.68;;;;;;;11.04;100.00;100882.16;5054366;28;20049;-72
2022/10/31 01:47:05;;;;;;;18.58;13.38;;;;;;;11.03;100.00;100883.97;5049046;28;20059;-71
2022/10/31 01:49:52;;;;;;;21.33;13.95;;;;;;;10.97;100.00;100881.59;5041220;28;20076;-72
2022/10/31 01:52:28;;;;;;;21.17;13.95;;;;;;;10.97;100.00;100878.94;5049539;28;20049;-72
2022/10/31 01:55:09;;;;;;;22.42;14.13;;;;;;;10.99;100.00;100881.53;5044741;28;20045;-72
2022/10/31 01:57:40;;;;;;;23.98;14.93;;;;;;;10.85;100.00;100858.25;5052151;28;20608;-72
2022/10/31 02:00:09;;;;;;;23.67;13.88;;;;;;;10.97;100.00;100872.75;5036119;28;20107;-72
2022/10/31 02:02:36;;;;;;;19.80;12.88;;;;;;;10.96;100.00;100871.91;5043593;28;20076;-73
2022/10/31 02:05:07;;;;;;;21.40;13.80;;;;;;;10.96;100.00;100863.09;5053931;28;20173;-72
2022/10/31 02:08:04;;;;;;;20.02;13.50;;;;;;;10.94;100.00;100875.53;5054696;28;20454;-72
2022/10/31 02:10:33;;;;;;;20.70;13.93;;;;;;;10.86;100.00;100882.00;5032062;28;20049;-72
2022/10/31 02:13:02;;;;;;;20.60;14.23;;;;;;;10.57;100.00;100839.06;5048536;28;20106;-73
2022/10/31 02:15:30;;;;;;;20.27;14.00;;;;;;;10.77;100.00;100879.72;5044413;28;20559;-72
2022/10/31 02:17:57;;;;;;;21.63;13.98;;;;;;;10.70;100.00;100867.66;5044720;28;20061;-73
2022/10/31 02:20:29;;;;;;;26.45;14.63;;;;;;;10.72;100.00;100873.75;5035089;28;20060;-72
2022/10/31 02:23:20;;;;;;;21.90;13.82;;;;;;;10.71;100.00;100874.66;5049650;28;20052;-72
2022/10/31 02:26:14;;;;;;;21.73;13.40;;;;;;;10.72;100.00;100881.69;5036489;28;20060;-73
2022/10/31 02:29:06;;;;;;;21.65;13.50;;;;;;;10.71;100.00;100871.16;5051699;28;20128;-72
2022/10/31 02:31:39;;;;;;;20.60;14.20;;;;;;;10.70;100.00;100880.06;5043201;28;20057;-72
2022/10/31 02:34:17;;;;;;;23.98;14.00;;;;;;;10.69;100.00;100875.69;5054461;28;20488;-72
2022/10/31 02:36:57;;;;;;;21.85;13.43;;;;;;;10.69;100.00;100865.06;5052238;28;20051;-72
2022/10/31 02:39:51;;;;;;;19.33;13.70;;;;;;;10.73;100.00;100867.53;5043938;28;20418;-72
2022/10/31 02:42:39;;;;;;;18.60;12.23;;;;;;;10.84;100.00;100875.06;5040833;28;20060;-72
2022/10/31 02:45:25;;;;;;;21.55;13.80;;;;;;;10.74;100.00;100852.50;5049347;28;20531;-71
2022/10/31 02:47:55;;;;;;;22.77;14.13;;;;;;;10.81;100.00;100872.53;5045134;28;20052;-72
2022/10/31 02:50:28;;;;;;;17.85;13.23;;;;;;;10.77;100.00;100869.13;5036899;28;20061;-71
2022/10/31 02:52:54;;;;;;;19.20;13.88;;;;;;;10.64;100.00;100856.44;5059424;28;20057;-73
2022/10/31 02:55:24;;;;;;;25.48;13.50;;;;;;;10.80;100.00;100878.75;5049248;28;20053;-71
2022/10/31 02:58:02;;;;;;;22.95;13.48;;;;;;;10.68;100.00;100850.97;5046049;28;20045;-71
2022/10/31 03:00:38;;;;;;;22.92;14.07;;;;;;;10.80;100.00;100882.25;5035527;28;20038;-70
2022/10/31 03:03:25;;;;;;;28.17;13.75;;;;;;;10.72;100.00;100868.44;5048388;28;20072;-74
2022/10/31 03:06:06;;;;;;;22.58;13.43;;;;;;;10.59;100.00;100853.97;5047543;28;20053;-72
2022/10/31 03:08:54;;;;;;;20.10;13.13;;;;;;;10.71;100.00;100871.16;5047729;28;20132;-72
2022/10/31 03:11:28;;;;;;;20.45;13.02;;;;;;;10.59;100.00;100856.63;5033729;28;20045;-73
2022/10/31 03:14:06;;;;;;;19.33;12.90;;;;;;;10.67;100.00;100864.28;5045677;28;20045;-73
2022/10/31 03:16:46;;;;;;;19.13;13.07;;;;;;;10.69;100.00;100867.72;5040899;28;20536;-72
2022/10/31 03:19:22;;;;;;;19.50;12.77;;;;;;;10.68;100.00;100866.00;5035641;28;20063;-73
2022/10/31 03:21:59;;;;;;;19.75;12.60;;;;;;;10.73;100.00;100858.72;5041843;28;20123;-72
2022/10/31 03:24:32;;;;;;;21.27;13.23;;;;;;;10.68;100.00;100850.09;5042914;28;20076;-72
2022/10/31 03:27:00;;;;;;;21.63;12.82;;;;;;;10.73;100.00;100862.22;5049202;28;20516;-73
2022/10/31 03:29:32;;;;;;;17.42;12.88;;;;;;;10.77;100.00;100861.19;5044037;28;20140;-72
2022/10/31 03:32:07;;;;;;;20.92;12.70;;;;;;;10.79;100.00;100858.47;5036553;28;20131;-73
2022/10/31 03:34:37;;;;;;;17.13;12.15;;;;;;;10.85;100.00;100858.25;5050115;28;20736;-72
2022/10/31 03:37:07;;;;;;;18.17;12.23;;;;;;;10.84;100.00;100861.81;5043418;28;20143;-72
2022/10/31 03:39:36;;;;;;;18.17;12.15;;;;;;;10.79;100.00;100856.69;5043884;28;20128;-72
2022/10/31 03:42:11;;;;;;;22.13;12.75;;;;;;;10.65;100.00;100848.44;5047439;28;20622;-72
2022/10/31 03:44:41;;;;;;;21.70;13.32;;;;;;;10.73;100.00;100864.88;5053275;28;20049;-72
2022/10/31 03:47:08;;;;;;;23.20;13.07;;;;;;;10.62;100.00;100845.91;5043916;28;20041;-72
2022/10/31 03:49:35;;;;;;;22.70;13.02;;;;;;;10.53;100.00;100838.34;5044702;28;20079;-72
2022/10/31 03:52:31;;;;;;;24.00;13.27;;;;;;;10.66;100.00;100855.47;5045463;28;20045;-71
2022/10/31 03:55:19;;;;;;;20.90;12.65;;;;;;;10.58;100.00;100851.38;5037792;28;20123;-71
2022/10/31 03:57:57;;;;;;;18.58;12.77;;;;;;;10.59;100.00;100853.09;5047526;28;20055;-72
2022/10/31 04:00:25;;;;;;;21.15;12.73;;;;;;;10.58;100.00;100859.31;5037397;28;20046;-72
2022/10/31 04:03:04;;;;;;;21.92;12.05;;;;;;;10.66;100.00;100858.13;5043059;28;20068;-73
2022/10/31 04:05:34;;;;;;;22.30;12.77;;;;;;;10.64;100.00;100848.50;5044492;28;20175;-72
2022/10/31 04:08:04;;;;;;;19.52;12.68;;;;;;;10.65;100.00;100855.53;5047040;28;20055;-71
2022/10/31 04:10:33;;;;;;;19.20;12.00;;;;;;;10.50;100.00;100831.38;5035277;28;20053;-71
2022/10/31 04:13:13;;;;;;;20.02;13.02;;;;;;;10.64;100.00;100851.16;5049845;28;20563;-71
2022/10/31 04:15:42;;;;;;;17.77;12.13;;;;;;;10.57;100.00;100834.63;5047137;28;21977;-72
2022/10/31 04:18:08;;;;;;;18.48;11.27;;;;;;;10.61;100.00;100844.19;5047222;28;20052;-72
2022/10/31 04:20:38;;;;;;;18.30;11.95;;;;;;;10.64;100.00;100843.19;5039672;28;20186;-71
2022/10/31 04:23:13;;;;;;;16.33;11.98;;;;;;;10.53;100.00;100825.97;5047550;28;20053;-71
2022/10/31 04:25:40;;;;;;;18.98;11.80;;;;;;;10.65;100.00;100848.44;5040821;28;20049;-71
2022/10/31 04:28:07;;;;;;;19.38;11.90;;;;;;;10.64;100.00;100846.72;5047660;28;20136;-71
2022/10/31 04:30:33;;;;;;;22.05;12.65;;;;;;;10.65;100.00;100859.03;5039099;28;20052;-75
2022/10/31 04:33:00;;;;;;;20.23;12.40;;;;;;;10.66;100.00;100863.41;5044309;28;20057;-71
2022/10/31 04:35:27;;;;;;;23.23;12.48;;;;;;;10.63;100.00;100857.38;5047801;28;20045;-73
2022/10/31 04:37:54;;;;;;;19.92;12.68;;;;;;;10.58;100.00;100852.25;5050128;28;20055;-72
2022/10/31 04:40:20;;;;;;;19.65;12.20;;;;;;;10.60;100.00;100861.00;5040058;28;20045;-72
2022/10/31 04:42:47;;;;;;;17.42;11.45;;;;;;;10.53;100.00;100854.22;5048071;28;20064;-71
2022/10/31 04:45:14;;;;;;;20.80;12.55;;;;;;;10.63;100.00;100879.41;5043323;28;20045;-72
2022/10/31 04:47:46;;;;;;;20.52;12.75;;;;;;;10.60;100.00;100876.00;5045267;28;20760;-71
2022/10/31 04:50:13;;;;;;;18.27;12.45;;;;;;;10.51;100.00;100866.66;5041273;28;20041;-71
2022/10/31 04:52:40;;;;;;;16.65;11.63;;;;;;;10.53;100.00;100878.06;5048257;28;20076;-73
2022/10/31 04:55:08;;;;;;;21.52;12.18;;;;;;;10.48;100.00;100870.28;5045852;28;20071;-73
2022/10/31 04:57:46;;;;;;;19.00;12.05;;;;;;;10.38;100.00;100868.06;5044005;28;20602;-72
2022/10/31 05:00:16;;;;;;;21.23;12.82;;;;;;;10.42;100.00;100875.81;5042301;28;20128;-73
2022/10/31 05:02:45;;;;;;;19.95;13.00;;;;;;;10.43;100.00;100876.66;5043130;28;20048;-73
2022/10/31 05:05:15;;;;;;;18.45;12.82;;;;;;;10.36;100.00;100864.63;5040813;28;20140;-73
2022/10/31 05:07:44;;;;;;;21.70;12.77;;;;;;;10.39;100.00;100881.22;5046698;28;20098;-72
2022/10/31 05:10:12;;;;;;;16.90;11.82;;;;;;;10.35;100.00;100866.41;5039631;28;20052;-73
2022/10/31 05:12:57;;;;;;;17.33;12.18;;;;;;;10.34;100.00;100851.44;5045483;28;20474;-73
2022/10/31 05:15:26;;;;;;;19.10;12.23;;;;;;;10.39;100.00;100864.50;5047675;28;20048;-73
2022/10/31 05:17:54;;;;;;;23.33;12.68;;;;;;;10.36;100.00;100862.81;5052628;28;20045;-73
2022/10/31 05:20:23;;;;;;;21.60;12.68;;;;;;;10.24;100.00;100835.94;5042578;28;20417;-73
2022/10/31 05:22:52;;;;;;;17.92;12.18;;;;;;;10.36;100.00;100852.25;5048709;28;20072;-73
2022/10/31 05:25:20;;;;;;;18.75;11.95;;;;;;;10.37;100.00;100850.47;5046776;28;20116;-73
2022/10/31 05:27:48;;;;;;;18.42;12.80;;;;;;;10.34;100.00;100830.25;5050997;28;20500;-72
2022/10/31 05:30:18;;;;;;;19.17;12.80;;;;;;;10.45;100.00;100846.56;5046038;28;20210;-72
2022/10/31 05:32:47;;;;;;;18.48;11.70;;;;;;;10.29;100.00;100820.75;5046721;28;20140;-72
2022/10/31 05:35:16;;;;;;;20.75;12.77;;;;;;;10.40;100.00;100839.72;5049734;28;20049;-73
2022/10/31 05:37:42;;;;;;;19.35;12.07;;;;;;;10.40;100.00;100852.97;5040491;28;20065;-71
2022/10/31 05:40:11;;;;;;;20.98;12.68;;;;;;;10.37;100.00;100861.03;5039468;28;20037;-71
2022/10/31 05:42:39;;;;;;;20.70;12.15;;;;;;;10.36;100.00;100854.03;5042223;28;20060;-74
2022/10/31 05:45:08;;;;;;;22.50;13.23;;;;;;;10.19;100.00;100836.16;5052968;28;20139;-71
2022/10/31 05:47:35;;;;;;;21.75;12.48;;;;;;;10.31;100.00;100861.28;5051810;28;20036;-71
2022/10/31 05:50:02;;;;;;;19.13;12.48;;;;;;;10.29;100.00;100863.09;5046805;28;20053;-71
2022/10/31 05:52:28;;;;;;;20.80;12.43;;;;;;;10.10;100.00;100834.66;5043274;28;20052;-71
2022/10/31 05:54:55;;;;;;;22.08;12.70;;;;;;;10.18;100.00;100830.00;5040762;28;20041;-71
2022/10/31 05:57:21;;;;;;;19.55;11.93;;;;;;;10.35;100.00;100850.50;5038204;28;20519;-71
2022/10/31 05:59:48;;;;;;;18.52;11.70;;;;;;;10.28;100.00;100848.16;5042328;28;20050;-73
2022/10/31 06:02:20;;;;;;;19.73;12.23;;;;;;;10.31;100.00;100858.63;5037650;28;20137;-71
2022/10/31 06:04:47;;;;;;;14.55;11.70;;;;;;;10.30;100.00;100854.25;5050073;28;20139;-71
2022/10/31 06:07:14;;;;;;;15.65;11.50;;;;;;;10.14;100.00;100830.97;5046997;28;20044;-73
2022/10/31 06:09:40;;;;;;;18.23;11.50;;;;;;;10.13;100.00;100818.66;5042736;28;20119;-73
2022/10/31 06:12:07;;;;;;;17.20;12.02;;;;;;;10.33;100.00;100846.19;5035610;28;20055;-73
2022/10/31 06:14:33;;;;;;;16.13;11.30;;;;;;;10.24;100.00;100831.50;5043075;28;20087;-73
2022/10/31 06:17:00;;;;;;;14.98;11.75;;;;;;;10.25;100.00;100816.50;5041985;28;20041;-73
2022/10/31 06:19:27;;;;;;;16.48;12.10;;;;;;;10.37;100.00;100837.22;5039501;28;20045;-72
2022/10/31 06:21:53;;;;;;;16.52;12.15;;;;;;;10.39;100.00;100838.03;5033666;28;20045;-73
2022/10/31 06:24:20;;;;;;;18.95;13.38;;;;;;;10.39;100.00;100845.97;5045136;28;20077;-73
2022/10/31 06:26:46;;;;;;;16.05;11.85;;;;;;;10.34;100.00;100842.63;5045236;28;20052;-73
2022/10/31 06:29:13;;;;;;;17.23;12.20;;;;;;;10.32;100.00;100852.41;5046118;28;20045;-74
2022/10/31 06:31:39;;;;;;;19.48;12.98;;;;;;;10.26;100.00;100847.34;5035641;28;20167;-73
2022/10/31 06:34:06;;;;;;;17.98;12.57;;;;;;;10.32;100.00;100852.41;5038403;28;20061;-73
2022/10/31 06:36:32;;;;;;;18.45;13.20;;;;;;;10.34;100.00;100845.28;5048554;28;20052;-73
2022/10/31 06:39:00;;;;;;;19.27;12.50;;;;;;;10.34;100.00;100829.38;5040229;28;20072;-73
2022/10/31 06:41:26;;;;;;;22.20;14.00;;;;;;;10.50;100.00;100841.97;5037891;28;20221;-72
2022/10/31 06:43:53;;;;;;;19.10;14.18;;;;;;;10.61;100.00;100849.47;5040426;28;20136;-73
2022/10/31 06:46:21;;;;;;;23.70;14.80;;;;;;;10.65;100.00;100845.78;5042581;28;20152;-72
2022/10/31 06:48:47;;;;;;;21.27;14.68;;;;;;;10.71;100.00;100849.97;5041797;28;20040;-73
2022/10/31 06:51:15;;;;;;;25.45;15.07;;;;;;;10.79;100.00;100862.00;5039045;28;20661;-73
2022/10/31 06:53:41;;;;;;;20.85;13.98;;;;;;;10.81;100.00;100849.53;5038377;28;20099;-72
2022/10/31 06:56:08;;;;;;;21.88;14.18;;;;;;;10.84;100.00;100835.31;5040619;28;20045;-72
2022/10/31 06:58:35;;;;;;;22.38;14.05;;;;;;;11.08;100.00;100849.31;5047168;28;20068;-72
2022/10/31 07:01:01;;;;;;;20.42;13.68;;;;;;;11.20;100.00;100860.28;5035488;28;20055;-71
2022/10/31 07:03:28;;;;;;;22.40;14.30;;;;;;;11.13;100.00;100829.66;5046369;28;20400;-71
2022/10/31 07:05:56;;;;;;;22.58;14.60;;;;;;;11.38;100.00;100858.63;5041867;28;20155;-71
2022/10/31 07:08:24;;;;;;;23.60;14.82;;;;;;;11.46;100.00;100858.31;5042195;28;20170;-71
2022/10/31 07:10:56;;;;;;;23.45;13.18;;;;;;;11.58;100.00;100863.06;5035038;28;20463;-71
2022/10/31 07:13:26;;;;;;;22.77;13.23;;;;;;;11.59;100.00;100844.44;5038868;28;20409;-72
2022/10/31 07:15:58;;;;;;;20.48;13.77;;;;;;;11.87;100.00;100864.47;5032414;28;20049;-72
2022/10/31 07:18:25;;;;;;;18.25;13.20;;;;;;;11.96;100.00;100869.38;5050767;28;20048;-72
2022/10/31 07:20:52;;;;;;;21.20;14.07;;;;;;;11.96;100.00;100869.38;5039258;28;20136;-73
2022/10/31 07:23:19;;;;;;;21.65;13.52;;;;;;;12.02;100.00;100874.41;5049073;28;20049;-72
2022/10/31 07:25:46;;;;;;;21.75;13.30;;;;;;;12.03;100.00;100867.28;5049876;28;20045;-73
2022/10/31 07:28:13;;;;;;;21.60;14.25;;;;;;;11.99;100.00;100853.28;5051614;28;20068;-72
2022/10/31 07:30:39;;;;;;;19.33;13.43;;;;;;;11.93;100.00;100845.63;5034779;28;20077;-71
2022/10/31 07:33:06;;;;;;;23.85;14.30;;;;;;;12.06;100.00;100865.38;5040358;28;20136;-71
2022/10/31 07:35:34;;;;;;;22.13;14.65;;;;;;;12.14;100.00;100865.88;5044191;28;20708;-72
2022/10/31 07:38:12;;;;;;;23.33;13.75;;;;;;;12.23;100.00;100867.25;5049138;28;20049;-71
2022/10/31 07:40:39;;;;;;;19.98;13.45;;;;;;;12.32;100.00;100874.78;5043494;28;20435;-72
2022/10/31 07:43:06;;;;;;;26.65;15.35;;;;;;;12.35;100.00;100848.09;5031855;28;20327;-71
2022/10/31 07:45:38;;;;;;;20.08;14.60;;;;;;;12.56;100.00;100864.81;5040195;28;20111;-71
2022/10/31 07:48:05;;;;;;;22.90;13.98;;;;;;;12.71;100.00;100877.38;5041657;28;20069;-72
2022/10/31 07:50:35;;;;;;;21.75;13.85;;;;;;;12.79;100.00;100869.88;5033690;28;20045;-71
2022/10/31 07:53:09;;;;;;;22.92;13.70;;;;;;;12.93;100.00;100875.38;5035771;28;20105;-71
2022/10/31 07:55:37;;;;;;;19.60;12.90;;;;;;;12.99;100.00;100872.41;5033605;28;20045;-72
2022/10/31 07:58:13;;;;;;;18.75;13.40;;;;;;;13.04;100.00;100868.69;5051726;28;20086;-72
2022/10/31 08:00:41;;;;;;;19.75;13.80;;;;;;;13.15;100.00;100877.00;5040990;28;20080;-72
2022/10/31 08:03:13;;;;;;;27.40;13.55;;;;;;;13.18;100.00;100871.53;5041329;28;20041;-74
2022/10/31 08:05:41;;;;;;;19.95;13.90;;;;;;;13.18;100.00;100880.38;5037370;28;20053;-74
2022/10/31 08:08:08;;;;;;;20.35;13.18;;;;;;;13.06;100.00;100845.53;5035940;28;20049;-71
2022/10/31 08:10:36;;;;;;;18.33;13.52;;;;;;;13.19;100.00;100878.59;5032493;28;20048;-72
2022/10/31 08:13:12;;;;;;;21.95;12.35;;;;;;;13.21;100.00;100876.72;5032228;28;20442;-71
2022/10/31 08:15:41;;;;;;;19.00;11.95;;;;;;;13.27;100.00;100871.06;5033138;28;20045;-72
2022/10/31 08:18:15;;;;;;;16.10;11.32;;;;;;;13.29;100.00;100867.41;5034059;28;20148;-73
2022/10/31 08:20:43;;;;;;;19.27;11.98;;;;;;;13.24;100.00;100861.44;5036260;28;20136;-71
2022/10/31 08:23:11;;;;;;;18.70;11.52;;;;;;;13.29;100.00;100866.53;5035487;28;20045;-72
2022/10/31 08:25:39;;;;;;;21.58;11.65;;;;;;;13.23;100.00;100861.50;5038641;28;20139;-72
2022/10/31 08:28:06;;;;;;;17.38;11.35;;;;;;;13.19;100.00;100866.16;5039223;28;20045;-72
2022/10/31 08:30:35;;;;;;;20.55;11.25;;;;;;;13.15;100.00;100866.38;5042706;28;20092;-72
2022/10/31 08:33:02;;;;;;;16.25;11.02;;;;;;;13.14;100.00;100868.13;5041900;28;20045;-71
2022/10/31 08:35:28;;;;;;;20.35;11.35;;;;;;;13.11;100.00;100867.41;5040634;28;20541;-71
2022/10/31 08:37:56;;;;;;;18.48;11.45;;;;;;;13.08;100.00;100867.56;5042595;28;20059;-71
2022/10/31 08:40:24;;;;;;;18.25;12.30;;;;;;;13.07;100.00;100861.38;5043245;28;20543;-74
2022/10/31 08:42:57;;;;;;;17.92;11.63;;;;;;;13.09;100.00;100861.31;5037184;28;20056;-72
2022/10/31 08:45:24;;;;;;;19.05;12.20;;;;;;;13.06;100.00;100861.50;5043834;28;20184;-72
2022/10/31 08:47:51;;;;;;;19.60;12.15;;;;;;;12.97;100.00;100852.16;5043712;28;20132;-72
2022/10/31 08:50:18;;;;;;;18.33;11.68;;;;;;;12.98;100.00;100853.88;5044987;28;20512;-73
2022/10/31 08:52:44;;;;;;;17.25;11.20;;;;;;;12.96;100.00;100851.31;5035175;28;20045;-73
2022/10/31 08:55:31;;;;;;;17.90;11.55;;;;;;;12.88;100.00;100840.19;5044082;28;20517;-73
2022/10/31 08:57:58;;;;;;;18.13;11.93;;;;;;;12.88;100.00;100848.19;5046037;28;20050;-72
2022/10/31 09:00:25;;;;;;;18.95;12.45;;;;;;;12.83;100.00;100844.00;5042141;28;20051;-72
2022/10/31 09:02:59;;;;;;;18.00;12.30;;;;;;;12.84;100.00;100848.41;5035233;28;20576;-72
2022/10/31 09:05:25;;;;;;;18.50;11.73;;;;;;;12.73;100.00;100834.78;5035871;28;20044;-72
2022/10/31 09:07:59;;;;;;;18.75;12.70;;;;;;;12.73;100.00;100838.28;5035252;28;20416;-74
2022/10/31 09:10:28;;;;;;;20.15;12.27;;;;;;;12.82;100.00;100836.97;5051939;28;20045;-73
2022/10/31 09:12:59;;;;;;;18.75;12.95;;;;;;;12.65;100.00;100809.44;5034282;28;20055;-72
2022/10/31 09:15:27;;;;;;;20.10;13.23;;;;;;;12.85;100.00;100820.88;5042516;28;20513;-71
2022/10/31 09:17:54;;;;;;;24.13;13.98;;;;;;;13.03;100.00;100833.25;5040238;28;20080;-74
2022/10/31 09:20:21;;;;;;;19.58;14.13;;;;;;;13.18;100.00;100829.00;5036095;28;20045;-71
2022/10/31 09:22:56;;;;;;;18.85;13.57;;;;;;;13.26;100.00;100829.44;5035424;28;20045;-76
2022/10/31 09:25:23;;;;;;;21.73;13.40;;;;;;;13.36;100.00;100828.06;5035043;28;20397;-72
2022/10/31 09:27:50;;;;;;;21.10;13.77;;;;;;;13.23;100.00;100808.31;5035762;28;20489;-73
2022/10/31 09:30:17;;;;;;;18.55;13.75;;;;;;;13.39;100.00;100827.88;5037236;28;22517;-73
2022/10/31 09:32:43;;;;;;;20.15;12.50;;;;;;;13.42;100.00;100822.41;5029868;28;20273;-71
2022/10/31 09:35:10;;;;;;;22.98;14.15;;;;;;;13.57;100.00;100828.72;5037363;28;20049;-72
2022/10/31 09:37:42;;;;;;;19.33;13.13;;;;;;;13.67;100.00;100820.19;5044221;28;20045;-72
2022/10/31 09:40:09;;;;;;;20.35;14.15;;;;;;;13.79;100.00;100821.34;5043759;28;20376;-72
2022/10/31 09:42:42;;;;;;;24.38;14.82;;;;;;;13.89;100.00;100816.38;5038442;28;20056;-72
2022/10/31 09:45:40;;;;;;;19.20;13.93;;;;;;;14.13;100.00;100823.03;5055541;28;20365;-72
2022/10/31 09:48:34;;;;;;;24.85;14.20;;;;;;;14.26;100.00;100820.56;5046591;28;20049;-72
2022/10/31 09:51:08;;;;;;;23.70;14.00;;;;;;;14.25;100.00;100817.03;5046383;28;20197;-72
2022/10/31 09:53:44;;;;;;;22.35;14.73;;;;;;;14.15;100.00;100797.19;5038853;28;20053;-71
2022/10/31 09:56:27;;;;;;;23.77;15.07;;;;;;;14.28;100.00;100816.88;5048162;28;20499;-71
2022/10/31 09:59:00;;;;;;;25.08;16.27;;;;;;;14.30;100.00;100819.44;5054400;28;20507;-73
2022/10/31 10:01:48;;;;;;;23.25;15.38;;;;;;;14.35;100.00;100817.38;5039153;28;20050;-73
2022/10/31 10:04:33;;;;;;;24.80;15.13;;;;;;;14.49;100.00;100809.47;5047717;28;20441;-73
2022/10/31 10:07:05;;;;;;;23.45;15.20;;;;;;;14.72;100.00;100810.84;5040005;28;20059;-71
2022/10/31 10:09:32;;;;;;;24.02;16.98;;;;;;;14.71;100.00;100786.00;5042764;28;20060;-71
2022/10/31 10:12:34;;;;;;;21.77;14.15;;;;;;;14.98;100.00;100798.66;5042772;28;20056;-71
2022/10/31 10:15:28;;;;;;;30.23;16.88;;;;;;;15.13;100.00;100796.91;5022379;28;20508;-72
2022/10/31 10:18:09;;;;;;;19.77;14.38;;;;;;;15.23;100.00;100798.09;5052615;28;20465;-72
2022/10/31 10:20:41;;;;;;;21.77;15.02;;;;;;;15.34;100.00;100799.16;5041797;28;20455;-72
2022/10/31 10:23:29;;;;;;;27.67;16.00;;;;;;;15.30;100.00;100786.06;5044388;28;20425;-72
2022/10/31 10:26:15;;;;;;;23.60;14.52;;;;;;;15.33;100.00;100776.09;5041014;28;20136;-71
2022/10/31 10:28:47;;;;;;;24.17;15.75;;;;;;;15.29;100.00;100771.88;5040886;28;20051;-72
2022/10/31 10:31:19;;;;;;;25.52;15.68;;;;;;;15.45;100.00;100790.50;5039459;28;20049;-71
2022/10/31 10:34:04;;;;;;;24.60;15.75;;;;;;;15.49;100.00;100794.69;5040565;28;20472;-71
2022/10/31 10:36:47;;;;;;;27.88;15.55;;;;;;;15.59;100.00;100801.22;5049684;28;20436;-71
2022/10/31 10:39:20;;;;;;;24.95;15.00;;;;;;;15.72;100.00;100788.00;5050540;28;20044;-72
2022/10/31 10:47:40;;;;;;;24.90;14.50;;;;;;;15.93;100.00;100767.06;5038694;28;20397;-72
2022/10/31 10:50:23;;;;;;;26.55;15.02;;;;;;;16.01;100.00;100768.31;5049288;28;20079;-74
2022/10/31 10:53:07;;;;;;;24.25;15.45;;;;;;;16.18;100.00;100777.06;5038597;28;20044;-73
2022/10/31 10:55:53;;;;;;;24.45;16.20;;;;;;;16.20;100.00;100777.84;5037308;28;20068;-72
2022/10/31 10:58:19;;;;;;;23.75;15.00;;;;;;;16.11;100.00;100752.56;5034177;28;20140;-72
2022/10/31 11:00:47;;;;;;;27.88;16.17;;;;;;;16.12;100.00;100747.13;5034135;28;20084;-72
2022/10/31 11:03:16;;;;;;;27.77;16.23;;;;;;;16.16;100.00;100742.44;5036483;28;20041;-72
2022/10/31 11:06:21;;;;;;;25.92;14.88;;;;;;;16.29;100.00;100755.84;5042356;28;20051;-72
2022/10/31 11:08:49;;;;;;;24.38;16.27;;;;;;;16.32;100.00;100745.84;5040046;28;20110;-71
2022/10/31 11:11:29;;;;;;;26.75;16.75;;;;;;;16.39;100.00;100743.59;5037168;28;20123;-72
2022/10/31 11:14:05;;;;;;;25.98;16.95;;;;;;;16.47;100.00;100736.81;5034951;28;20049;-71
2022/10/31 11:16:33;;;;;;;28.45;16.33;;;;;;;16.58;100.00;100741.44;5037535;28;20051;-73
2022/10/31 11:19:21;;;;;;;21.70;16.17;;;;;;;16.52;100.00;100728.50;5036605;28;20053;-72
2022/10/31 11:21:48;;;;;;;20.25;14.43;;;;;;;16.47;100.00;100709.22;5039526;28;20044;-71
2022/10/31 11:24:22;;;;;;;28.02;17.17;;;;;;;16.67;100.00;100726.66;5022489;28;21361;-71
2022/10/31 11:26:51;;;;;;;26.10;15.60;;;;;;;16.71;100.00;100718.28;5035244;28;20061;-71